sensor_id;sensor_type;location;lat;lon;timestamp;P1;durP1;ratioP1;P2;durP2;ratioP2
19621;SDS011;9958;33.196;-97.114;2023-01-23T00:01:28;0.80;;;0.80;;
19621;SDS011;9958;33.196;-97.114;2023-01-23T00:03:59;0.95;;;0.55;;
19621;SDS011;9958;33.196;-97.114;2023-01-23T00:06:29;0.90;;;0.60;;
19621;SDS011;9958;33.196;-97.114;2023-01-23T00:08:57;0.68;;;0.68;;
19621;SDS011;9958;33.196;-97.114;2023-01-23T00:11:27;2.15;;;0.60;;
19621;SDS011;9958;33.196;-97.114;2023-01-23T00:13:56;0.60;;;0.60;;
19621;SDS011;9958;33.196;-97.114;2023-01-23T00:16:26;0.70;;;0.70;;
19621;SDS011;9958;33.196;-97.114;2023-01-23T00:18:56;0.50;;;0.50;;
19621;SDS011;9958;33.196;-97.114;2023-01-23T00:21:25;0.93;;;0.80;;
19621;SDS011;9958;33.196;-97.114;2023-01-23T00:23:57;0.70;;;0.70;;
19621;SDS011;9958;33.196;-97.114;2023-01-23T00:26:28;1.70;;;1.00;;
19621;SDS011;9958;33.196;-97.114;2023-01-23T00:28:58;1.00;;;0.90;;
19621;SDS011;9958;33.196;-97.114;2023-01-23T00:31:27;0.80;;;0.80;;
19621;SDS011;9958;33.196;-97.114;2023-01-23T00:33:57;1.00;;;0.85;;
19621;SDS011;9958;33.196;-97.114;2023-01-23T00:36:27;1.35;;;1.25;;
19621;SDS011;9958;33.196;-97.114;2023-01-23T00:38:58;1.13;;;0.95;;
19621;SDS011;9958;33.196;-97.114;2023-01-23T00:41:26;1.20;;;1.10;;
19621;SDS011;9958;33.196;-97.114;2023-01-23T00:43:55;1.25;;;1.05;;
19621;SDS011;9958;33.196;-97.114;2023-01-23T00:46:23;1.50;;;0.90;;
19621;SDS011;9958;33.196;-97.114;2023-01-23T00:48:52;1.48;;;1.35;;
19621;SDS011;9958;33.196;-97.114;2023-01-23T00:51:20;1.40;;;1.30;;
19621;SDS011;9958;33.196;-97.114;2023-01-23T00:53:49;2.05;;;1.48;;
19621;SDS011;9958;33.196;-97.114;2023-01-23T00:56:19;1.30;;;1.15;;
19621;SDS011;9958;33.196;-97.114;2023-01-23T00:58:47;1.05;;;1.05;;
19621;SDS011;9958;33.196;-97.114;2023-01-23T01:01:16;2.03;;;1.33;;
19621;SDS011;9958;33.196;-97.114;2023-01-23T01:03:44;2.10;;;1.33;;
19621;SDS011;9958;33.196;-97.114;2023-01-23T01:06:13;1.83;;;1.35;;
19621;SDS011;9958;33.196;-97.114;2023-01-23T01:08:42;2.83;;;1.50;;
19621;SDS011;9958;33.196;-97.114;2023-01-23T01:11:10;1.92;;;1.73;;
19621;SDS011;9958;33.196;-97.114;2023-01-23T01:13:40;1.92;;;1.77;;
19621;SDS011;9958;33.196;-97.114;2023-01-23T01:16:09;2.47;;;1.73;;
19621;SDS011;9958;33.196;-97.114;2023-01-23T01:18:37;1.67;;;1.42;;
19621;SDS011;9958;33.196;-97.114;2023-01-23T01:21:06;1.77;;;1.50;;
19621;SDS011;9958;33.196;-97.114;2023-01-23T01:23:36;1.42;;;1.33;;
19621;SDS011;9958;33.196;-97.114;2023-01-23T01:26:05;1.38;;;1.27;;
19621;SDS011;9958;33.196;-97.114;2023-01-23T01:28:34;3.17;;;1.42;;
19621;SDS011;9958;33.196;-97.114;2023-01-23T01:31:06;3.47;;;1.80;;
19621;SDS011;9958;33.196;-97.114;2023-01-23T01:33:36;2.60;;;1.80;;
19621;SDS011;9958;33.196;-97.114;2023-01-23T01:36:07;1.70;;;1.52;;
19621;SDS011;9958;33.196;-97.114;2023-01-23T01:38:36;2.28;;;1.50;;
19621;SDS011;9958;33.196;-97.114;2023-01-23T01:41:05;4.43;;;1.60;;
19621;SDS011;9958;33.196;-97.114;2023-01-23T01:43:33;2.08;;;1.65;;
19621;SDS011;9958;33.196;-97.114;2023-01-23T01:46:08;3.03;;;1.48;;
19621;SDS011;9958;33.196;-97.114;2023-01-23T01:48:41;2.42;;;1.80;;
19621;SDS011;9958;33.196;-97.114;2023-01-23T01:51:17;3.05;;;1.65;;
19621;SDS011;9958;33.196;-97.114;2023-01-23T01:53:52;2.65;;;1.75;;
19621;SDS011;9958;33.196;-97.114;2023-01-23T01:56:25;2.67;;;1.48;;
19621;SDS011;9958;33.196;-97.114;2023-01-23T01:58:55;1.48;;;1.38;;
19621;SDS011;9958;33.196;-97.114;2023-01-23T02:01:26;5.10;;;1.65;;
19621;SDS011;9958;33.196;-97.114;2023-01-23T02:03:55;1.92;;;1.77;;
19621;SDS011;9958;33.196;-97.114;2023-01-23T02:06:24;3.45;;;1.60;;
19621;SDS011;9958;33.196;-97.114;2023-01-23T02:08:56;2.90;;;1.60;;
19621;SDS011;9958;33.196;-97.114;2023-01-23T02:11:29;1.73;;;1.63;;
19621;SDS011;9958;33.196;-97.114;2023-01-23T02:13:57;2.95;;;1.70;;
19621;SDS011;9958;33.196;-97.114;2023-01-23T02:16:28;1.52;;;1.42;;
19621;SDS011;9958;33.196;-97.114;2023-01-23T02:19:06;1.55;;;1.33;;
19621;SDS011;9958;33.196;-97.114;2023-01-23T02:21:43;2.08;;;1.50;;
19621;SDS011;9958;33.196;-97.114;2023-01-23T02:24:16;1.73;;;1.40;;
19621;SDS011;9958;33.196;-97.114;2023-01-23T02:26:53;2.03;;;1.27;;
19621;SDS011;9958;33.196;-97.114;2023-01-23T02:29:22;1.58;;;1.42;;
19621;SDS011;9958;33.196;-97.114;2023-01-23T02:31:50;2.20;;;1.40;;
19621;SDS011;9958;33.196;-97.114;2023-01-23T02:34:20;1.27;;;1.17;;
19621;SDS011;9958;33.196;-97.114;2023-01-23T02:36:50;1.63;;;1.38;;
19621;SDS011;9958;33.196;-97.114;2023-01-23T02:39:19;1.52;;;1.40;;
19621;SDS011;9958;33.196;-97.114;2023-01-23T02:41:48;2.15;;;1.23;;
19621;SDS011;9958;33.196;-97.114;2023-01-23T02:44:19;1.42;;;1.27;;
19621;SDS011;9958;33.196;-97.114;2023-01-23T02:46:51;1.55;;;1.45;;
19621;SDS011;9958;33.196;-97.114;2023-01-23T02:49:20;1.55;;;1.20;;
19621;SDS011;9958;33.196;-97.114;2023-01-23T02:51:48;1.17;;;1.13;;
19621;SDS011;9958;33.196;-97.114;2023-01-23T02:54:18;1.23;;;1.13;;
19621;SDS011;9958;33.196;-97.114;2023-01-23T02:56:46;1.88;;;1.30;;
19621;SDS011;9958;33.196;-97.114;2023-01-23T02:59:15;2.78;;;1.60;;
19621;SDS011;9958;33.196;-97.114;2023-01-23T03:02:02;2.15;;;1.80;;
19621;SDS011;9958;33.196;-97.114;2023-01-23T03:04:30;2.03;;;1.50;;
19621;SDS011;9958;33.196;-97.114;2023-01-23T03:06:59;2.20;;;1.77;;
19621;SDS011;9958;33.196;-97.114;2023-01-23T03:09:27;1.67;;;1.52;;
19621;SDS011;9958;33.196;-97.114;2023-01-23T03:11:56;2.80;;;1.70;;
19621;SDS011;9958;33.196;-97.114;2023-01-23T03:14:25;3.28;;;2.00;;
19621;SDS011;9958;33.196;-97.114;2023-01-23T03:16:54;1.48;;;1.38;;
19621;SDS011;9958;33.196;-97.114;2023-01-23T03:19:25;1.58;;;1.40;;
19621;SDS011;9958;33.196;-97.114;2023-01-23T03:21:53;2.22;;;1.20;;
19621;SDS011;9958;33.196;-97.114;2023-01-23T03:24:22;1.48;;;1.38;;
19621;SDS011;9958;33.196;-97.114;2023-01-23T03:26:50;2.50;;;1.55;;
19621;SDS011;9958;33.196;-97.114;2023-01-23T03:29:19;2.13;;;1.95;;
19621;SDS011;9958;33.196;-97.114;2023-01-23T03:32:06;2.60;;;1.05;;
19621;SDS011;9958;33.196;-97.114;2023-01-23T03:34:37;2.03;;;1.50;;
19621;SDS011;9958;33.196;-97.114;2023-01-23T03:37:06;1.70;;;1.60;;
19621;SDS011;9958;33.196;-97.114;2023-01-23T03:39:35;2.08;;;1.45;;
19621;SDS011;9958;33.196;-97.114;2023-01-23T03:42:20;1.33;;;1.25;;
19621;SDS011;9958;33.196;-97.114;2023-01-23T03:44:50;1.17;;;1.02;;
19621;SDS011;9958;33.196;-97.114;2023-01-23T03:47:18;1.20;;;1.10;;
19621;SDS011;9958;33.196;-97.114;2023-01-23T03:49:50;1.55;;;1.45;;
19621;SDS011;9958;33.196;-97.114;2023-01-23T03:52:18;1.50;;;1.38;;
19621;SDS011;9958;33.196;-97.114;2023-01-23T03:54:47;1.65;;;1.38;;
19621;SDS011;9958;33.196;-97.114;2023-01-23T03:57:15;2.65;;;1.55;;
19621;SDS011;9958;33.196;-97.114;2023-01-23T03:59:44;1.55;;;1.45;;
19621;SDS011;9958;33.196;-97.114;2023-01-23T04:02:12;1.25;;;1.15;;
19621;SDS011;9958;33.196;-97.114;2023-01-23T04:04:41;1.48;;;1.35;;
19621;SDS011;9958;33.196;-97.114;2023-01-23T04:07:11;1.88;;;1.50;;
19621;SDS011;9958;33.196;-97.114;2023-01-23T04:09:39;4.13;;;1.45;;
19621;SDS011;9958;33.196;-97.114;2023-01-23T04:12:07;1.42;;;1.33;;
19621;SDS011;9958;33.196;-97.114;2023-01-23T04:14:36;1.40;;;1.27;;
19621;SDS011;9958;33.196;-97.114;2023-01-23T04:17:04;1.30;;;1.20;;
19621;SDS011;9958;33.196;-97.114;2023-01-23T04:19:33;1.02;;;1.02;;
19621;SDS011;9958;33.196;-97.114;2023-01-23T04:22:02;2.05;;;1.35;;
19621;SDS011;9958;33.196;-97.114;2023-01-23T04:24:32;1.40;;;1.30;;
19621;SDS011;9958;33.196;-97.114;2023-01-23T04:27:00;1.00;;;1.00;;
19621;SDS011;9958;33.196;-97.114;2023-01-23T04:29:29;2.88;;;1.20;;
19621;SDS011;9958;33.196;-97.114;2023-01-23T04:31:57;1.15;;;1.15;;
19621;SDS011;9958;33.196;-97.114;2023-01-23T04:34:26;1.23;;;1.13;;
19621;SDS011;9958;33.196;-97.114;2023-01-23T04:36:54;1.35;;;1.15;;
19621;SDS011;9958;33.196;-97.114;2023-01-23T04:39:22;1.63;;;1.20;;
19621;SDS011;9958;33.196;-97.114;2023-01-23T04:41:52;1.00;;;1.00;;
19621;SDS011;9958;33.196;-97.114;2023-01-23T04:44:21;1.33;;;1.30;;
19621;SDS011;9958;33.196;-97.114;2023-01-23T04:46:50;1.65;;;1.23;;
19621;SDS011;9958;33.196;-97.114;2023-01-23T04:49:20;1.15;;;1.08;;
19621;SDS011;9958;33.196;-97.114;2023-01-23T04:51:49;1.38;;;1.27;;
19621;SDS011;9958;33.196;-97.114;2023-01-23T04:54:18;3.13;;;1.17;;
19621;SDS011;9958;33.196;-97.114;2023-01-23T04:56:47;1.00;;;1.00;;
19621;SDS011;9958;33.196;-97.114;2023-01-23T04:59:17;1.58;;;1.38;;
19621;SDS011;9958;33.196;-97.114;2023-01-23T05:01:46;2.13;;;1.30;;
19621;SDS011;9958;33.196;-97.114;2023-01-23T05:04:14;1.40;;;1.30;;
19621;SDS011;9958;33.196;-97.114;2023-01-23T05:06:42;1.40;;;1.05;;
19621;SDS011;9958;33.196;-97.114;2023-01-23T05:09:11;1.30;;;1.20;;
19621;SDS011;9958;33.196;-97.114;2023-01-23T05:11:39;0.93;;;0.93;;
19621;SDS011;9958;33.196;-97.114;2023-01-23T05:14:08;1.20;;;1.10;;
19621;SDS011;9958;33.196;-97.114;2023-01-23T05:16:38;2.08;;;0.98;;
19621;SDS011;9958;33.196;-97.114;2023-01-23T05:19:06;1.00;;;1.00;;
19621;SDS011;9958;33.196;-97.114;2023-01-23T05:21:34;1.27;;;1.17;;
19621;SDS011;9958;33.196;-97.114;2023-01-23T05:24:03;1.52;;;1.27;;
19621;SDS011;9958;33.196;-97.114;2023-01-23T05:26:32;1.77;;;1.40;;
19621;SDS011;9958;33.196;-97.114;2023-01-23T05:29:01;2.00;;;1.50;;
19621;SDS011;9958;33.196;-97.114;2023-01-23T05:31:29;2.08;;;1.52;;
19621;SDS011;9958;33.196;-97.114;2023-01-23T05:33:59;4.65;;;2.53;;
19621;SDS011;9958;33.196;-97.114;2023-01-23T05:36:27;9.77;;;4.72;;
19621;SDS011;9958;33.196;-97.114;2023-01-23T05:38:56;6.53;;;3.30;;
19621;SDS011;9958;33.196;-97.114;2023-01-23T05:41:24;7.43;;;3.30;;
19621;SDS011;9958;33.196;-97.114;2023-01-23T05:43:52;9.60;;;3.53;;
19621;SDS011;9958;33.196;-97.114;2023-01-23T05:46:21;6.53;;;3.45;;
19621;SDS011;9958;33.196;-97.114;2023-01-23T05:48:49;3.50;;;2.10;;
19621;SDS011;9958;33.196;-97.114;2023-01-23T05:51:19;5.00;;;2.53;;
19621;SDS011;9958;33.196;-97.114;2023-01-23T05:53:55;2.70;;;1.88;;
19621;SDS011;9958;33.196;-97.114;2023-01-23T05:56:24;1.90;;;1.80;;
19621;SDS011;9958;33.196;-97.114;2023-01-23T05:58:53;4.60;;;1.80;;
19621;SDS011;9958;33.196;-97.114;2023-01-23T06:01:22;2.42;;;1.80;;
19621;SDS011;9958;33.196;-97.114;2023-01-23T06:03:51;1.90;;;1.80;;
19621;SDS011;9958;33.196;-97.114;2023-01-23T06:06:21;1.83;;;1.65;;
19621;SDS011;9958;33.196;-97.114;2023-01-23T06:08:49;4.18;;;2.55;;
19621;SDS011;9958;33.196;-97.114;2023-01-23T06:11:17;2.20;;;2.00;;
19621;SDS011;9958;33.196;-97.114;2023-01-23T06:13:46;3.90;;;1.73;;
19621;SDS011;9958;33.196;-97.114;2023-01-23T06:16:14;2.50;;;1.50;;
19621;SDS011;9958;33.196;-97.114;2023-01-23T06:18:43;1.60;;;1.13;;
19621;SDS011;9958;33.196;-97.114;2023-01-23T06:21:11;1.45;;;1.35;;
19621;SDS011;9958;33.196;-97.114;2023-01-23T06:23:41;2.33;;;1.35;;
19621;SDS011;9958;33.196;-97.114;2023-01-23T06:26:09;1.73;;;1.42;;
19621;SDS011;9958;33.196;-97.114;2023-01-23T06:28:38;1.80;;;1.33;;
19621;SDS011;9958;33.196;-97.114;2023-01-23T06:31:07;1.60;;;1.50;;
19621;SDS011;9958;33.196;-97.114;2023-01-23T06:33:35;1.80;;;1.67;;
19621;SDS011;9958;33.196;-97.114;2023-01-23T06:36:04;5.65;;;1.85;;
19621;SDS011;9958;33.196;-97.114;2023-01-23T06:38:33;1.65;;;1.20;;
19621;SDS011;9958;33.196;-97.114;2023-01-23T06:41:03;1.90;;;1.38;;
19621;SDS011;9958;33.196;-97.114;2023-01-23T06:43:31;2.15;;;1.52;;
19621;SDS011;9958;33.196;-97.114;2023-01-23T06:46:00;1.42;;;1.30;;
19621;SDS011;9958;33.196;-97.114;2023-01-23T06:48:28;1.88;;;1.58;;
19621;SDS011;9958;33.196;-97.114;2023-01-23T06:50:58;2.63;;;1.80;;
19621;SDS011;9958;33.196;-97.114;2023-01-23T06:53:27;2.03;;;1.80;;
19621;SDS011;9958;33.196;-97.114;2023-01-23T06:55:58;3.40;;;1.90;;
19621;SDS011;9958;33.196;-97.114;2023-01-23T06:58:28;1.05;;;1.05;;
19621;SDS011;9958;33.196;-97.114;2023-01-23T07:00:57;2.45;;;1.65;;
19621;SDS011;9958;33.196;-97.114;2023-01-23T07:03:25;1.88;;;1.17;;
19621;SDS011;9958;33.196;-97.114;2023-01-23T07:05:53;6.10;;;2.20;;
19621;SDS011;9958;33.196;-97.114;2023-01-23T07:08:22;1.95;;;1.60;;
19621;SDS011;9958;33.196;-97.114;2023-01-23T07:10:50;2.22;;;1.75;;
19621;SDS011;9958;33.196;-97.114;2023-01-23T07:13:18;2.47;;;1.50;;
19621;SDS011;9958;33.196;-97.114;2023-01-23T07:15:48;2.53;;;1.90;;
19621;SDS011;9958;33.196;-97.114;2023-01-23T07:18:17;1.95;;;1.58;;
19621;SDS011;9958;33.196;-97.114;2023-01-23T07:20:45;1.38;;;1.23;;
19621;SDS011;9958;33.196;-97.114;2023-01-23T07:23:14;1.52;;;1.42;;
19621;SDS011;9958;33.196;-97.114;2023-01-23T07:25:43;2.22;;;2.08;;
19621;SDS011;9958;33.196;-97.114;2023-01-23T07:28:11;1.80;;;1.70;;
19621;SDS011;9958;33.196;-97.114;2023-01-23T07:30:39;1.83;;;1.70;;
19621;SDS011;9958;33.196;-97.114;2023-01-23T07:33:09;4.63;;;2.25;;
19621;SDS011;9958;33.196;-97.114;2023-01-23T07:35:39;2.08;;;1.90;;
19621;SDS011;9958;33.196;-97.114;2023-01-23T07:38:07;3.40;;;2.03;;
19621;SDS011;9958;33.196;-97.114;2023-01-23T07:40:35;3.10;;;2.03;;
19621;SDS011;9958;33.196;-97.114;2023-01-23T07:43:07;5.22;;;1.60;;
19621;SDS011;9958;33.196;-97.114;2023-01-23T07:45:36;5.03;;;2.05;;
19621;SDS011;9958;33.196;-97.114;2023-01-23T07:48:04;2.42;;;2.05;;
19621;SDS011;9958;33.196;-97.114;2023-01-23T07:50:34;2.78;;;2.22;;
19621;SDS011;9958;33.196;-97.114;2023-01-23T07:53:04;2.28;;;1.92;;
19621;SDS011;9958;33.196;-97.114;2023-01-23T07:55:32;2.03;;;1.80;;
19621;SDS011;9958;33.196;-97.114;2023-01-23T07:58:01;1.95;;;1.77;;
19621;SDS011;9958;33.196;-97.114;2023-01-23T08:00:30;4.40;;;2.20;;
19621;SDS011;9958;33.196;-97.114;2023-01-23T08:02:58;3.08;;;2.08;;
19621;SDS011;9958;33.196;-97.114;2023-01-23T08:05:26;3.63;;;2.42;;
19621;SDS011;9958;33.196;-97.114;2023-01-23T08:07:56;2.30;;;2.03;;
19621;SDS011;9958;33.196;-97.114;2023-01-23T08:10:25;1.88;;;1.35;;
19621;SDS011;9958;33.196;-97.114;2023-01-23T08:12:53;1.58;;;1.45;;
19621;SDS011;9958;33.196;-97.114;2023-01-23T08:15:21;3.13;;;2.40;;
19621;SDS011;9958;33.196;-97.114;2023-01-23T08:17:50;2.38;;;1.50;;
19621;SDS011;9958;33.196;-97.114;2023-01-23T08:20:19;1.77;;;1.67;;
19621;SDS011;9958;33.196;-97.114;2023-01-23T08:22:48;3.22;;;1.70;;
19621;SDS011;9958;33.196;-97.114;2023-01-23T08:25:18;2.72;;;1.98;;
19621;SDS011;9958;33.196;-97.114;2023-01-23T08:27:46;2.58;;;1.70;;
19621;SDS011;9958;33.196;-97.114;2023-01-23T08:30:15;2.25;;;1.88;;
19621;SDS011;9958;33.196;-97.114;2023-01-23T08:32:43;2.17;;;1.92;;
19621;SDS011;9958;33.196;-97.114;2023-01-23T08:35:12;1.67;;;1.45;;
19621;SDS011;9958;33.196;-97.114;2023-01-23T08:37:40;1.90;;;1.67;;
19621;SDS011;9958;33.196;-97.114;2023-01-23T08:40:09;2.70;;;2.13;;
19621;SDS011;9958;33.196;-97.114;2023-01-23T08:42:40;4.47;;;2.28;;
19621;SDS011;9958;33.196;-97.114;2023-01-23T08:45:08;5.07;;;1.65;;
19621;SDS011;9958;33.196;-97.114;2023-01-23T08:47:37;4.88;;;2.55;;
19621;SDS011;9958;33.196;-97.114;2023-01-23T08:50:06;2.63;;;1.70;;
19621;SDS011;9958;33.196;-97.114;2023-01-23T08:52:35;2.33;;;1.90;;
19621;SDS011;9958;33.196;-97.114;2023-01-23T08:55:04;1.63;;;1.52;;
19621;SDS011;9958;33.196;-97.114;2023-01-23T08:57:33;2.38;;;2.03;;
19621;SDS011;9958;33.196;-97.114;2023-01-23T09:00:03;2.55;;;2.13;;
19621;SDS011;9958;33.196;-97.114;2023-01-23T09:02:32;2.30;;;1.77;;
19621;SDS011;9958;33.196;-97.114;2023-01-23T09:05:01;2.65;;;2.17;;
19621;SDS011;9958;33.196;-97.114;2023-01-23T09:07:29;2.17;;;1.65;;
19621;SDS011;9958;33.196;-97.114;2023-01-23T09:10:00;3.20;;;2.03;;
19621;SDS011;9958;33.196;-97.114;2023-01-23T09:12:29;5.10;;;2.10;;
19621;SDS011;9958;33.196;-97.114;2023-01-23T09:14:58;2.65;;;1.80;;
19621;SDS011;9958;33.196;-97.114;2023-01-23T09:17:28;2.15;;;1.95;;
19621;SDS011;9958;33.196;-97.114;2023-01-23T09:19:56;1.90;;;1.70;;
19621;SDS011;9958;33.196;-97.114;2023-01-23T09:22:26;4.70;;;1.48;;
19621;SDS011;9958;33.196;-97.114;2023-01-23T09:24:54;2.10;;;2.00;;
19621;SDS011;9958;33.196;-97.114;2023-01-23T09:27:22;1.58;;;1.42;;
19621;SDS011;9958;33.196;-97.114;2023-01-23T09:29:51;2.75;;;2.17;;
19621;SDS011;9958;33.196;-97.114;2023-01-23T09:32:19;2.80;;;1.90;;
19621;SDS011;9958;33.196;-97.114;2023-01-23T09:34:49;2.70;;;2.00;;
19621;SDS011;9958;33.196;-97.114;2023-01-23T09:37:19;2.30;;;1.60;;
19621;SDS011;9958;33.196;-97.114;2023-01-23T09:39:47;1.63;;;1.40;;
19621;SDS011;9958;33.196;-97.114;2023-01-23T09:42:16;3.97;;;1.85;;
19621;SDS011;9958;33.196;-97.114;2023-01-23T09:44:47;2.75;;;1.85;;
19621;SDS011;9958;33.196;-97.114;2023-01-23T09:47:18;1.77;;;1.65;;
19621;SDS011;9958;33.196;-97.114;2023-01-23T09:49:54;2.38;;;2.00;;
19621;SDS011;9958;33.196;-97.114;2023-01-23T09:52:25;1.85;;;1.33;;
19621;SDS011;9958;33.196;-97.114;2023-01-23T09:54:58;1.40;;;1.30;;
19621;SDS011;9958;33.196;-97.114;2023-01-23T09:57:29;3.13;;;2.22;;
19621;SDS011;9958;33.196;-97.114;2023-01-23T10:00:03;4.60;;;2.55;;
19621;SDS011;9958;33.196;-97.114;2023-01-23T10:02:37;2.85;;;1.40;;
19621;SDS011;9958;33.196;-97.114;2023-01-23T10:05:11;1.63;;;1.40;;
19621;SDS011;9958;33.196;-97.114;2023-01-23T10:07:44;2.45;;;1.80;;
19621;SDS011;9958;33.196;-97.114;2023-01-23T10:13:19;1.33;;;1.23;;
19621;SDS011;9958;33.196;-97.114;2023-01-23T10:16:10;1.85;;;1.75;;
19621;SDS011;9958;33.196;-97.114;2023-01-23T10:19:15;3.25;;;1.67;;
19621;SDS011;9958;33.196;-97.114;2023-01-23T10:22:06;2.72;;;2.00;;
19621;SDS011;9958;33.196;-97.114;2023-01-23T10:24:47;1.75;;;1.40;;
19621;SDS011;9958;33.196;-97.114;2023-01-23T10:27:19;2.92;;;1.75;;
19621;SDS011;9958;33.196;-97.114;2023-01-23T10:29:48;2.03;;;1.63;;
19621;SDS011;9958;33.196;-97.114;2023-01-23T10:32:23;2.80;;;1.58;;
19621;SDS011;9958;33.196;-97.114;2023-01-23T10:34:53;2.45;;;1.98;;
19621;SDS011;9958;33.196;-97.114;2023-01-23T10:37:31;1.85;;;1.60;;
19621;SDS011;9958;33.196;-97.114;2023-01-23T10:40:11;2.08;;;1.92;;
19621;SDS011;9958;33.196;-97.114;2023-01-23T10:42:40;2.35;;;1.70;;
19621;SDS011;9958;33.196;-97.114;2023-01-23T10:45:12;2.33;;;1.95;;
19621;SDS011;9958;33.196;-97.114;2023-01-23T10:47:45;1.75;;;1.55;;
19621;SDS011;9958;33.196;-97.114;2023-01-23T10:50:14;1.67;;;1.58;;
19621;SDS011;9958;33.196;-97.114;2023-01-23T10:53:05;1.60;;;1.50;;
19621;SDS011;9958;33.196;-97.114;2023-01-23T10:55:38;1.38;;;1.20;;
19621;SDS011;9958;33.196;-97.114;2023-01-23T10:58:20;1.83;;;1.58;;
19621;SDS011;9958;33.196;-97.114;2023-01-23T11:00:54;3.75;;;1.45;;
19621;SDS011;9958;33.196;-97.114;2023-01-23T11:03:28;2.58;;;1.73;;
19621;SDS011;9958;33.196;-97.114;2023-01-23T11:06:02;1.67;;;1.58;;
19621;SDS011;9958;33.196;-97.114;2023-01-23T11:08:39;2.38;;;1.50;;
19621;SDS011;9958;33.196;-97.114;2023-01-23T11:11:20;2.20;;;1.23;;
19621;SDS011;9958;33.196;-97.114;2023-01-23T11:13:50;4.18;;;2.25;;
19621;SDS011;9958;33.196;-97.114;2023-01-23T11:16:30;1.88;;;1.77;;
19621;SDS011;9958;33.196;-97.114;2023-01-23T11:19:03;2.22;;;1.80;;
19621;SDS011;9958;33.196;-97.114;2023-01-23T11:21:50;1.70;;;1.60;;
19621;SDS011;9958;33.196;-97.114;2023-01-23T11:24:25;3.33;;;1.75;;
19621;SDS011;9958;33.196;-97.114;2023-01-23T11:26:57;1.88;;;1.70;;
19621;SDS011;9958;33.196;-97.114;2023-01-23T11:29:27;2.15;;;1.52;;
19621;SDS011;9958;33.196;-97.114;2023-01-23T11:32:00;1.83;;;1.73;;
19621;SDS011;9958;33.196;-97.114;2023-01-23T11:34:32;4.18;;;1.90;;
19621;SDS011;9958;33.196;-97.114;2023-01-23T11:37:08;2.22;;;1.88;;
19621;SDS011;9958;33.196;-97.114;2023-01-23T11:39:46;2.53;;;1.83;;
19621;SDS011;9958;33.196;-97.114;2023-01-23T11:42:16;1.90;;;1.30;;
19621;SDS011;9958;33.196;-97.114;2023-01-23T11:44:45;3.47;;;1.98;;
19621;SDS011;9958;33.196;-97.114;2023-01-23T11:50:34;1.95;;;1.67;;
19621;SDS011;9958;33.196;-97.114;2023-01-23T11:53:10;2.33;;;1.67;;
19621;SDS011;9958;33.196;-97.114;2023-01-23T11:59:07;1.42;;;1.33;;
19621;SDS011;9958;33.196;-97.114;2023-01-23T12:01:56;2.88;;;1.52;;
19621;SDS011;9958;33.196;-97.114;2023-01-23T12:04:51;1.38;;;1.27;;
19621;SDS011;9958;33.196;-97.114;2023-01-23T12:07:30;1.70;;;1.60;;
19621;SDS011;9958;33.196;-97.114;2023-01-23T12:10:07;2.10;;;1.58;;
19621;SDS011;9958;33.196;-97.114;2023-01-23T12:12:52;3.45;;;2.33;;
19621;SDS011;9958;33.196;-97.114;2023-01-23T12:15:35;1.60;;;1.50;;
19621;SDS011;9958;33.196;-97.114;2023-01-23T12:18:14;1.95;;;1.83;;
19621;SDS011;9958;33.196;-97.114;2023-01-23T12:20:54;2.58;;;1.83;;
19621;SDS011;9958;33.196;-97.114;2023-01-23T12:23:35;1.30;;;1.20;;
19621;SDS011;9958;33.196;-97.114;2023-01-23T12:26:14;2.42;;;2.13;;
19621;SDS011;9958;33.196;-97.114;2023-01-23T12:32:02;2.28;;;2.08;;
19621;SDS011;9958;33.196;-97.114;2023-01-23T12:34:58;1.58;;;1.33;;
19621;SDS011;9958;33.196;-97.114;2023-01-23T12:37:42;4.13;;;1.88;;
19621;SDS011;9958;33.196;-97.114;2023-01-23T12:40:23;1.90;;;1.55;;
19621;SDS011;9958;33.196;-97.114;2023-01-23T12:42:56;1.60;;;1.50;;
19621;SDS011;9958;33.196;-97.114;2023-01-23T12:45:31;3.03;;;1.48;;
19621;SDS011;9958;33.196;-97.114;2023-01-23T12:48:03;1.92;;;1.60;;
19621;SDS011;9958;33.196;-97.114;2023-01-23T12:50:39;2.40;;;2.28;;
19621;SDS011;9958;33.196;-97.114;2023-01-23T12:53:12;2.75;;;2.22;;
19621;SDS011;9958;33.196;-97.114;2023-01-23T12:55:45;4.07;;;1.65;;
19621;SDS011;9958;33.196;-97.114;2023-01-23T12:58:20;4.55;;;1.73;;
19621;SDS011;9958;33.196;-97.114;2023-01-23T13:00:53;2.85;;;1.98;;
19621;SDS011;9958;33.196;-97.114;2023-01-23T13:03:42;1.67;;;1.27;;
19621;SDS011;9958;33.196;-97.114;2023-01-23T13:06:37;2.70;;;1.75;;
19621;SDS011;9958;33.196;-97.114;2023-01-23T13:09:20;1.70;;;1.33;;
19621;SDS011;9958;33.196;-97.114;2023-01-23T13:11:57;2.20;;;2.00;;
19621;SDS011;9958;33.196;-97.114;2023-01-23T13:14:36;2.83;;;1.90;;
19621;SDS011;9958;33.196;-97.114;2023-01-23T13:20:09;1.77;;;1.23;;
19621;SDS011;9958;33.196;-97.114;2023-01-23T13:23:23;1.65;;;1.33;;
19621;SDS011;9958;33.196;-97.114;2023-01-23T13:28:57;5.88;;;1.83;;
19621;SDS011;9958;33.196;-97.114;2023-01-23T13:31:33;2.38;;;1.85;;
19621;SDS011;9958;33.196;-97.114;2023-01-23T13:34:06;3.35;;;1.95;;
19621;SDS011;9958;33.196;-97.114;2023-01-23T13:40:18;1.60;;;1.45;;
19621;SDS011;9958;33.196;-97.114;2023-01-23T13:42:48;6.93;;;1.52;;
19621;SDS011;9958;33.196;-97.114;2023-01-23T13:45:26;4.43;;;2.10;;
19621;SDS011;9958;33.196;-97.114;2023-01-23T13:48:12;4.22;;;2.20;;
19621;SDS011;9958;33.196;-97.114;2023-01-23T13:51:27;2.40;;;1.90;;
19621;SDS011;9958;33.196;-97.114;2023-01-23T13:53:56;2.67;;;1.85;;
19621;SDS011;9958;33.196;-97.114;2023-01-23T13:56:43;4.00;;;2.40;;
19621;SDS011;9958;33.196;-97.114;2023-01-23T13:59:17;5.55;;;2.03;;
19621;SDS011;9958;33.196;-97.114;2023-01-23T14:01:54;2.85;;;2.60;;
19621;SDS011;9958;33.196;-97.114;2023-01-23T14:04:53;3.92;;;2.60;;
19621;SDS011;9958;33.196;-97.114;2023-01-23T14:07:41;2.97;;;2.25;;
19621;SDS011;9958;33.196;-97.114;2023-01-23T14:10:17;3.65;;;2.38;;
19621;SDS011;9958;33.196;-97.114;2023-01-23T14:12:50;2.67;;;2.42;;
19621;SDS011;9958;33.196;-97.114;2023-01-23T14:15:27;3.42;;;2.63;;
19621;SDS011;9958;33.196;-97.114;2023-01-23T14:18:16;3.50;;;1.92;;
19621;SDS011;9958;33.196;-97.114;2023-01-23T14:20:50;2.70;;;1.92;;
19621;SDS011;9958;33.196;-97.114;2023-01-23T14:23:26;2.50;;;2.10;;
19621;SDS011;9958;33.196;-97.114;2023-01-23T14:25:58;6.07;;;2.60;;
19621;SDS011;9958;33.196;-97.114;2023-01-23T14:28:31;2.63;;;2.35;;
19621;SDS011;9958;33.196;-97.114;2023-01-23T14:31:00;3.53;;;2.55;;
19621;SDS011;9958;33.196;-97.114;2023-01-23T14:33:37;4.65;;;2.90;;
19621;SDS011;9958;33.196;-97.114;2023-01-23T14:36:11;12.85;;;2.72;;
19621;SDS011;9958;33.196;-97.114;2023-01-23T14:38:42;11.43;;;3.05;;
19621;SDS011;9958;33.196;-97.114;2023-01-23T14:41:12;4.78;;;2.72;;
19621;SDS011;9958;33.196;-97.114;2023-01-23T14:43:43;4.75;;;2.50;;
19621;SDS011;9958;33.196;-97.114;2023-01-23T14:46:14;6.30;;;3.05;;
19621;SDS011;9958;33.196;-97.114;2023-01-23T14:48:47;2.53;;;2.33;;
19621;SDS011;9958;33.196;-97.114;2023-01-23T14:51:18;5.93;;;3.10;;
19621;SDS011;9958;33.196;-97.114;2023-01-23T14:53:52;8.48;;;2.90;;
19621;SDS011;9958;33.196;-97.114;2023-01-23T14:56:24;5.47;;;2.65;;
19621;SDS011;9958;33.196;-97.114;2023-01-23T14:58:58;6.32;;;3.40;;
19621;SDS011;9958;33.196;-97.114;2023-01-23T15:01:28;2.83;;;2.40;;
19621;SDS011;9958;33.196;-97.114;2023-01-23T15:03:58;3.95;;;2.53;;
19621;SDS011;9958;33.196;-97.114;2023-01-23T15:06:28;6.45;;;3.22;;
19621;SDS011;9958;33.196;-97.114;2023-01-23T15:09:05;3.08;;;2.78;;
19621;SDS011;9958;33.196;-97.114;2023-01-23T15:11:39;4.53;;;2.72;;
19621;SDS011;9958;33.196;-97.114;2023-01-23T15:14:17;5.05;;;3.35;;
19621;SDS011;9958;33.196;-97.114;2023-01-23T15:16:59;4.95;;;2.45;;
19621;SDS011;9958;33.196;-97.114;2023-01-23T15:19:28;5.32;;;3.22;;
19621;SDS011;9958;33.196;-97.114;2023-01-23T15:22:04;8.93;;;3.30;;
19621;SDS011;9958;33.196;-97.114;2023-01-23T15:24:34;4.70;;;3.28;;